sensor_id;sensor_type;location;lat;lon;timestamp;P1;durP1;ratioP1;P2;durP2;ratioP2
57023;SDS011;42916;54.346;18.562;2022-10-16T00:02:21;39.80;;;20.50;;
57023;SDS011;42916;54.346;18.562;2022-10-16T00:04:47;35.70;;;20.40;;
57023;SDS011;42916;54.346;18.562;2022-10-16T00:07:14;33.80;;;19.30;;
57023;SDS011;42916;54.346;18.562;2022-10-16T00:09:40;37.60;;;20.20;;
57023;SDS011;42916;54.346;18.562;2022-10-16T00:12:07;39.60;;;20.90;;
57023;SDS011;42916;54.346;18.562;2022-10-16T00:14:34;39.30;;;20.20;;
57023;SDS011;42916;54.346;18.562;2022-10-16T00:17:00;37.30;;;19.70;;
57023;SDS011;42916;54.346;18.562;2022-10-16T00:19:27;34.10;;;18.90;;
57023;SDS011;42916;54.346;18.562;2022-10-16T00:21:54;34.80;;;20.30;;
57023;SDS011;42916;54.346;18.562;2022-10-16T00:24:20;35.70;;;19.60;;
57023;SDS011;42916;54.346;18.562;2022-10-16T00:26:49;36.50;;;19.80;;
57023;SDS011;42916;54.346;18.562;2022-10-16T00:29:16;35.60;;;19.80;;
57023;SDS011;42916;54.346;18.562;2022-10-16T00:31:42;36.30;;;19.90;;
57023;SDS011;42916;54.346;18.562;2022-10-16T00:34:09;34.90;;;19.70;;
57023;SDS011;42916;54.346;18.562;2022-10-16T00:36:35;38.30;;;20.60;;
57023;SDS011;42916;54.346;18.562;2022-10-16T00:39:03;32.10;;;17.90;;
57023;SDS011;42916;54.346;18.562;2022-10-16T00:41:30;40.50;;;21.10;;
57023;SDS011;42916;54.346;18.562;2022-10-16T00:43:58;37.10;;;21.20;;
57023;SDS011;42916;54.346;18.562;2022-10-16T00:46:31;33.00;;;19.80;;
57023;SDS011;42916;54.346;18.562;2022-10-16T00:51:49;38.90;;;20.60;;
57023;SDS011;42916;54.346;18.562;2022-10-16T00:56:45;34.80;;;19.00;;
57023;SDS011;42916;54.346;18.562;2022-10-16T00:59:18;33.90;;;19.30;;
57023;SDS011;42916;54.346;18.562;2022-10-16T01:01:47;34.30;;;18.80;;
57023;SDS011;42916;54.346;18.562;2022-10-16T01:04:14;36.30;;;18.50;;
57023;SDS011;42916;54.346;18.562;2022-10-16T01:06:51;32.80;;;19.60;;
57023;SDS011;42916;54.346;18.562;2022-10-16T01:12:42;31.70;;;18.30;;
57023;SDS011;42916;54.346;18.562;2022-10-16T01:15:26;33.70;;;18.10;;
57023;SDS011;42916;54.346;18.562;2022-10-16T01:20:48;36.00;;;19.20;;
57023;SDS011;42916;54.346;18.562;2022-10-16T01:28:55;36.00;;;18.40;;
57023;SDS011;42916;54.346;18.562;2022-10-16T01:31:27;34.20;;;18.40;;
57023;SDS011;42916;54.346;18.562;2022-10-16T01:34:12;32.20;;;17.60;;
57023;SDS011;42916;54.346;18.562;2022-10-16T01:39:38;33.60;;;19.10;;
57023;SDS011;42916;54.346;18.562;2022-10-16T01:42:13;27.30;;;16.70;;
57023;SDS011;42916;54.346;18.562;2022-10-16T01:44:43;25.30;;;16.10;;
57023;SDS011;42916;54.346;18.562;2022-10-16T01:47:14;26.80;;;15.10;;
57023;SDS011;42916;54.346;18.562;2022-10-16T01:49:41;24.30;;;14.70;;
57023;SDS011;42916;54.346;18.562;2022-10-16T01:52:12;21.50;;;13.90;;
57023;SDS011;42916;54.346;18.562;2022-10-16T01:54:43;23.60;;;14.30;;
57023;SDS011;42916;54.346;18.562;2022-10-16T01:57:14;22.60;;;14.40;;
57023;SDS011;42916;54.346;18.562;2022-10-16T01:59:50;25.20;;;14.20;;
57023;SDS011;42916;54.346;18.562;2022-10-16T02:02:21;21.50;;;14.20;;
57023;SDS011;42916;54.346;18.562;2022-10-16T02:04:53;23.20;;;13.80;;
57023;SDS011;42916;54.346;18.562;2022-10-16T02:07:24;22.70;;;13.80;;
57023;SDS011;42916;54.346;18.562;2022-10-16T02:09:51;21.70;;;13.90;;
57023;SDS011;42916;54.346;18.562;2022-10-16T02:12:26;23.20;;;13.60;;
57023;SDS011;42916;54.346;18.562;2022-10-16T02:17:24;23.70;;;13.90;;
57023;SDS011;42916;54.346;18.562;2022-10-16T02:19:51;22.90;;;14.40;;
57023;SDS011;42916;54.346;18.562;2022-10-16T02:24:54;22.80;;;15.70;;
57023;SDS011;42916;54.346;18.562;2022-10-16T02:30:23;25.50;;;14.00;;
57023;SDS011;42916;54.346;18.562;2022-10-16T02:32:55;21.80;;;15.10;;
57023;SDS011;42916;54.346;18.562;2022-10-16T02:35:25;24.70;;;15.90;;
57023;SDS011;42916;54.346;18.562;2022-10-16T02:37:53;25.60;;;14.50;;
57023;SDS011;42916;54.346;18.562;2022-10-16T02:40:21;23.80;;;15.30;;
57023;SDS011;42916;54.346;18.562;2022-10-16T02:42:49;23.40;;;15.30;;
57023;SDS011;42916;54.346;18.562;2022-10-16T02:47:44;23.90;;;14.70;;
57023;SDS011;42916;54.346;18.562;2022-10-16T02:50:11;26.80;;;15.20;;
57023;SDS011;42916;54.346;18.562;2022-10-16T02:52:38;24.80;;;15.20;;
57023;SDS011;42916;54.346;18.562;2022-10-16T02:55:04;26.60;;;15.50;;
57023;SDS011;42916;54.346;18.562;2022-10-16T02:57:32;22.80;;;15.00;;
57023;SDS011;42916;54.346;18.562;2022-10-16T02:59:58;23.80;;;15.40;;
57023;SDS011;42916;54.346;18.562;2022-10-16T03:02:25;23.30;;;15.40;;
57023;SDS011;42916;54.346;18.562;2022-10-16T03:04:52;21.00;;;14.50;;
57023;SDS011;42916;54.346;18.562;2022-10-16T03:07:18;23.40;;;14.80;;
57023;SDS011;42916;54.346;18.562;2022-10-16T03:09:45;22.70;;;14.60;;
57023;SDS011;42916;54.346;18.562;2022-10-16T03:12:12;21.80;;;14.00;;
57023;SDS011;42916;54.346;18.562;2022-10-16T03:14:38;24.60;;;15.90;;
57023;SDS011;42916;54.346;18.562;2022-10-16T03:17:06;26.80;;;15.10;;
57023;SDS011;42916;54.346;18.562;2022-10-16T03:19:32;24.00;;;15.70;;
57023;SDS011;42916;54.346;18.562;2022-10-16T03:21:59;21.80;;;13.90;;
57023;SDS011;42916;54.346;18.562;2022-10-16T03:24:26;21.10;;;14.50;;
57023;SDS011;42916;54.346;18.562;2022-10-16T03:26:52;22.30;;;14.70;;
57023;SDS011;42916;54.346;18.562;2022-10-16T03:29:19;20.60;;;13.00;;
57023;SDS011;42916;54.346;18.562;2022-10-16T03:31:45;22.40;;;15.00;;
57023;SDS011;42916;54.346;18.562;2022-10-16T03:34:12;21.80;;;14.00;;
57023;SDS011;42916;54.346;18.562;2022-10-16T03:36:38;22.20;;;15.10;;
57023;SDS011;42916;54.346;18.562;2022-10-16T03:39:05;27.00;;;15.80;;
57023;SDS011;42916;54.346;18.562;2022-10-16T03:41:32;19.90;;;13.80;;
57023;SDS011;42916;54.346;18.562;2022-10-16T03:43:58;21.70;;;13.50;;
57023;SDS011;42916;54.346;18.562;2022-10-16T03:46:25;21.50;;;14.50;;
57023;SDS011;42916;54.346;18.562;2022-10-16T03:48:51;18.10;;;12.70;;
57023;SDS011;42916;54.346;18.562;2022-10-16T03:51:18;19.70;;;13.60;;
57023;SDS011;42916;54.346;18.562;2022-10-16T03:53:44;21.90;;;14.10;;
57023;SDS011;42916;54.346;18.562;2022-10-16T03:56:13;21.00;;;13.90;;
57023;SDS011;42916;54.346;18.562;2022-10-16T03:58:39;22.80;;;14.10;;
57023;SDS011;42916;54.346;18.562;2022-10-16T04:01:06;19.50;;;13.60;;
57023;SDS011;42916;54.346;18.562;2022-10-16T04:03:33;21.30;;;14.20;;
57023;SDS011;42916;54.346;18.562;2022-10-16T04:05:59;20.50;;;14.20;;
57023;SDS011;42916;54.346;18.562;2022-10-16T04:08:26;19.40;;;13.40;;
57023;SDS011;42916;54.346;18.562;2022-10-16T04:10:53;20.10;;;13.30;;
57023;SDS011;42916;54.346;18.562;2022-10-16T04:13:19;19.60;;;13.30;;
57023;SDS011;42916;54.346;18.562;2022-10-16T04:15:46;24.40;;;14.90;;
57023;SDS011;42916;54.346;18.562;2022-10-16T04:18:12;23.50;;;14.90;;
57023;SDS011;42916;54.346;18.562;2022-10-16T04:20:40;18.60;;;13.10;;
57023;SDS011;42916;54.346;18.562;2022-10-16T04:23:07;22.80;;;15.00;;
57023;SDS011;42916;54.346;18.562;2022-10-16T04:25:33;25.90;;;16.60;;
57023;SDS011;42916;54.346;18.562;2022-10-16T04:28:00;22.40;;;15.20;;
57023;SDS011;42916;54.346;18.562;2022-10-16T04:30:27;24.60;;;16.10;;
57023;SDS011;42916;54.346;18.562;2022-10-16T04:32:53;22.30;;;14.10;;
57023;SDS011;42916;54.346;18.562;2022-10-16T04:35:20;21.70;;;14.60;;
57023;SDS011;42916;54.346;18.562;2022-10-16T04:37:48;21.40;;;14.60;;
57023;SDS011;42916;54.346;18.562;2022-10-16T04:40:15;23.40;;;15.20;;
57023;SDS011;42916;54.346;18.562;2022-10-16T04:42:41;24.60;;;15.20;;
57023;SDS011;42916;54.346;18.562;2022-10-16T04:45:08;20.80;;;14.70;;
57023;SDS011;42916;54.346;18.562;2022-10-16T04:47:35;21.30;;;14.50;;
57023;SDS011;42916;54.346;18.562;2022-10-16T04:50:02;23.10;;;15.40;;
57023;SDS011;42916;54.346;18.562;2022-10-16T04:52:29;22.90;;;16.00;;
57023;SDS011;42916;54.346;18.562;2022-10-16T04:54:58;23.20;;;14.60;;
57023;SDS011;42916;54.346;18.562;2022-10-16T04:57:28;25.10;;;16.10;;
57023;SDS011;42916;54.346;18.562;2022-10-16T04:59:56;20.00;;;14.10;;
57023;SDS011;42916;54.346;18.562;2022-10-16T05:02:23;22.90;;;15.70;;
57023;SDS011;42916;54.346;18.562;2022-10-16T05:04:49;22.50;;;14.70;;
57023;SDS011;42916;54.346;18.562;2022-10-16T05:07:16;25.00;;;16.10;;
57023;SDS011;42916;54.346;18.562;2022-10-16T05:09:43;25.40;;;16.30;;
57023;SDS011;42916;54.346;18.562;2022-10-16T05:12:10;22.00;;;14.10;;
57023;SDS011;42916;54.346;18.562;2022-10-16T05:14:37;24.60;;;15.30;;
57023;SDS011;42916;54.346;18.562;2022-10-16T05:17:04;28.20;;;17.20;;
57023;SDS011;42916;54.346;18.562;2022-10-16T05:19:30;26.20;;;17.00;;
57023;SDS011;42916;54.346;18.562;2022-10-16T05:21:57;24.30;;;15.80;;
57023;SDS011;42916;54.346;18.562;2022-10-16T05:24:24;25.90;;;16.40;;
57023;SDS011;42916;54.346;18.562;2022-10-16T05:26:51;24.90;;;15.80;;
57023;SDS011;42916;54.346;18.562;2022-10-16T05:29:18;26.10;;;16.80;;
57023;SDS011;42916;54.346;18.562;2022-10-16T05:31:44;29.40;;;17.50;;
57023;SDS011;42916;54.346;18.562;2022-10-16T05:34:11;30.00;;;18.70;;
57023;SDS011;42916;54.346;18.562;2022-10-16T05:36:38;29.70;;;18.00;;
57023;SDS011;42916;54.346;18.562;2022-10-16T05:39:04;28.60;;;18.20;;
57023;SDS011;42916;54.346;18.562;2022-10-16T05:41:31;31.00;;;19.10;;
57023;SDS011;42916;54.346;18.562;2022-10-16T05:43:58;29.70;;;18.40;;
57023;SDS011;42916;54.346;18.562;2022-10-16T05:46:24;31.10;;;19.40;;
57023;SDS011;42916;54.346;18.562;2022-10-16T05:48:51;29.30;;;19.50;;
57023;SDS011;42916;54.346;18.562;2022-10-16T05:51:19;29.40;;;17.90;;
57023;SDS011;42916;54.346;18.562;2022-10-16T05:53:46;32.40;;;20.40;;
57023;SDS011;42916;54.346;18.562;2022-10-16T05:56:13;32.80;;;21.30;;
57023;SDS011;42916;54.346;18.562;2022-10-16T05:58:40;33.70;;;21.90;;
57023;SDS011;42916;54.346;18.562;2022-10-16T06:01:10;32.50;;;20.00;;
57023;SDS011;42916;54.346;18.562;2022-10-16T06:03:38;31.80;;;20.80;;
57023;SDS011;42916;54.346;18.562;2022-10-16T06:06:09;29.10;;;18.90;;
57023;SDS011;42916;54.346;18.562;2022-10-16T06:08:37;30.90;;;19.90;;
57023;SDS011;42916;54.346;18.562;2022-10-16T06:11:04;25.70;;;17.30;;
57023;SDS011;42916;54.346;18.562;2022-10-16T06:16:00;32.30;;;21.20;;
57023;SDS011;42916;54.346;18.562;2022-10-16T06:18:28;33.00;;;21.10;;
57023;SDS011;42916;54.346;18.562;2022-10-16T06:20:55;34.90;;;20.10;;
57023;SDS011;42916;54.346;18.562;2022-10-16T06:23:23;34.00;;;21.80;;
57023;SDS011;42916;54.346;18.562;2022-10-16T06:25:50;33.80;;;21.00;;
57023;SDS011;42916;54.346;18.562;2022-10-16T06:28:17;33.60;;;22.80;;
57023;SDS011;42916;54.346;18.562;2022-10-16T06:30:44;36.20;;;22.50;;
57023;SDS011;42916;54.346;18.562;2022-10-16T06:33:12;32.70;;;21.80;;
57023;SDS011;42916;54.346;18.562;2022-10-16T06:35:39;36.50;;;23.20;;
57023;SDS011;42916;54.346;18.562;2022-10-16T06:38:05;35.00;;;21.40;;
57023;SDS011;42916;54.346;18.562;2022-10-16T06:40:32;35.10;;;22.00;;
57023;SDS011;42916;54.346;18.562;2022-10-16T06:42:59;34.90;;;21.80;;
57023;SDS011;42916;54.346;18.562;2022-10-16T06:45:26;34.50;;;22.50;;
57023;SDS011;42916;54.346;18.562;2022-10-16T06:47:52;33.20;;;21.30;;
57023;SDS011;42916;54.346;18.562;2022-10-16T06:50:19;33.20;;;20.60;;
57023;SDS011;42916;54.346;18.562;2022-10-16T06:52:46;34.40;;;21.10;;
57023;SDS011;42916;54.346;18.562;2022-10-16T06:55:12;33.20;;;20.80;;
57023;SDS011;42916;54.346;18.562;2022-10-16T06:57:39;32.40;;;21.00;;
57023;SDS011;42916;54.346;18.562;2022-10-16T07:00:06;37.00;;;21.90;;
57023;SDS011;42916;54.346;18.562;2022-10-16T07:02:33;31.70;;;21.20;;
57023;SDS011;42916;54.346;18.562;2022-10-16T07:04:59;30.80;;;21.00;;
57023;SDS011;42916;54.346;18.562;2022-10-16T07:07:26;27.20;;;18.60;;
57023;SDS011;42916;54.346;18.562;2022-10-16T07:09:53;32.90;;;21.00;;
57023;SDS011;42916;54.346;18.562;2022-10-16T07:12:19;30.00;;;20.00;;
57023;SDS011;42916;54.346;18.562;2022-10-16T07:14:46;31.60;;;20.70;;
57023;SDS011;42916;54.346;18.562;2022-10-16T07:17:12;29.40;;;19.70;;
57023;SDS011;42916;54.346;18.562;2022-10-16T07:19:39;29.00;;;19.40;;
57023;SDS011;42916;54.346;18.562;2022-10-16T07:22:06;30.20;;;20.30;;
57023;SDS011;42916;54.346;18.562;2022-10-16T07:24:32;29.70;;;20.10;;
57023;SDS011;42916;54.346;18.562;2022-10-16T07:26:59;31.50;;;20.30;;
57023;SDS011;42916;54.346;18.562;2022-10-16T07:29:26;31.70;;;20.90;;
57023;SDS011;42916;54.346;18.562;2022-10-16T07:31:52;33.80;;;21.00;;
57023;SDS011;42916;54.346;18.562;2022-10-16T07:34:19;34.20;;;21.70;;
57023;SDS011;42916;54.346;18.562;2022-10-16T07:36:51;38.60;;;24.90;;
57023;SDS011;42916;54.346;18.562;2022-10-16T07:39:18;29.90;;;20.70;;
57023;SDS011;42916;54.346;18.562;2022-10-16T07:41:44;30.20;;;20.00;;
57023;SDS011;42916;54.346;18.562;2022-10-16T07:44:11;30.80;;;19.50;;
57023;SDS011;42916;54.346;18.562;2022-10-16T07:46:38;31.90;;;21.50;;
57023;SDS011;42916;54.346;18.562;2022-10-16T07:49:04;30.70;;;19.90;;
57023;SDS011;42916;54.346;18.562;2022-10-16T07:51:32;33.20;;;20.10;;
57023;SDS011;42916;54.346;18.562;2022-10-16T07:53:58;35.40;;;20.80;;
57023;SDS011;42916;54.346;18.562;2022-10-16T07:56:25;32.90;;;21.00;;
57023;SDS011;42916;54.346;18.562;2022-10-16T07:58:52;32.50;;;20.60;;
57023;SDS011;42916;54.346;18.562;2022-10-16T08:01:19;34.50;;;21.80;;
57023;SDS011;42916;54.346;18.562;2022-10-16T08:03:47;32.00;;;20.50;;
57023;SDS011;42916;54.346;18.562;2022-10-16T08:06:16;32.90;;;21.50;;
57023;SDS011;42916;54.346;18.562;2022-10-16T08:08:43;31.30;;;20.80;;
57023;SDS011;42916;54.346;18.562;2022-10-16T08:11:10;33.00;;;20.50;;
57023;SDS011;42916;54.346;18.562;2022-10-16T08:13:37;34.00;;;21.70;;
57023;SDS011;42916;54.346;18.562;2022-10-16T08:16:03;31.10;;;20.00;;
57023;SDS011;42916;54.346;18.562;2022-10-16T08:18:34;27.60;;;19.10;;
57023;SDS011;42916;54.346;18.562;2022-10-16T08:21:02;32.10;;;19.50;;
57023;SDS011;42916;54.346;18.562;2022-10-16T08:23:30;29.00;;;19.50;;
57023;SDS011;42916;54.346;18.562;2022-10-16T08:26:02;27.80;;;19.00;;
57023;SDS011;42916;54.346;18.562;2022-10-16T08:28:32;31.50;;;20.20;;
57023;SDS011;42916;54.346;18.562;2022-10-16T08:31:05;32.30;;;19.90;;
57023;SDS011;42916;54.346;18.562;2022-10-16T08:33:37;27.50;;;19.10;;
57023;SDS011;42916;54.346;18.562;2022-10-16T08:36:05;27.90;;;18.80;;
57023;SDS011;42916;54.346;18.562;2022-10-16T08:38:32;31.40;;;19.80;;
57023;SDS011;42916;54.346;18.562;2022-10-16T08:43:59;29.10;;;18.60;;
57023;SDS011;42916;54.346;18.562;2022-10-16T08:49:32;28.30;;;17.40;;
57023;SDS011;42916;54.346;18.562;2022-10-16T08:51:59;26.40;;;17.30;;
57023;SDS011;42916;54.346;18.562;2022-10-16T08:54:31;26.30;;;17.70;;
57023;SDS011;42916;54.346;18.562;2022-10-16T08:57:08;27.60;;;17.70;;
57023;SDS011;42916;54.346;18.562;2022-10-16T08:59:38;26.90;;;17.70;;
57023;SDS011;42916;54.346;18.562;2022-10-16T09:02:13;27.20;;;17.40;;
57023;SDS011;42916;54.346;18.562;2022-10-16T09:15:53;26.30;;;17.70;;
57023;SDS011;42916;54.346;18.562;2022-10-16T09:24:09;29.10;;;19.20;;
57023;SDS011;42916;54.346;18.562;2022-10-16T09:26:37;27.40;;;17.50;;
57023;SDS011;42916;54.346;18.562;2022-10-16T09:29:04;26.70;;;17.30;;
57023;SDS011;42916;54.346;18.562;2022-10-16T09:31:30;28.40;;;17.20;;
57023;SDS011;42916;54.346;18.562;2022-10-16T09:33:58;25.00;;;17.00;;
57023;SDS011;42916;54.346;18.562;2022-10-16T09:36:27;23.70;;;16.10;;
57023;SDS011;42916;54.346;18.562;2022-10-16T09:39:29;26.30;;;16.10;;
57023;SDS011;42916;54.346;18.562;2022-10-16T09:41:48;24.00;;;16.40;;
57023;SDS011;42916;54.346;18.562;2022-10-16T09:44:29;22.00;;;15.10;;
57023;SDS011;42916;54.346;18.562;2022-10-16T09:47:05;24.20;;;16.20;;
57023;SDS011;42916;54.346;18.562;2022-10-16T09:49:39;26.00;;;16.40;;
57023;SDS011;42916;54.346;18.562;2022-10-16T09:52:11;26.60;;;16.60;;
57023;SDS011;42916;54.346;18.562;2022-10-16T09:54:48;25.40;;;17.80;;
57023;SDS011;42916;54.346;18.562;2022-10-16T09:57:16;28.90;;;18.50;;
57023;SDS011;42916;54.346;18.562;2022-10-16T09:59:51;27.40;;;17.40;;
57023;SDS011;42916;54.346;18.562;2022-10-16T10:02:20;25.50;;;16.80;;
57023;SDS011;42916;54.346;18.562;2022-10-16T10:04:55;27.50;;;17.80;;
57023;SDS011;42916;54.346;18.562;2022-10-16T10:07:24;26.20;;;16.30;;
57023;SDS011;42916;54.346;18.562;2022-10-16T10:10:01;30.00;;;18.00;;
57023;SDS011;42916;54.346;18.562;2022-10-16T10:12:31;25.20;;;16.50;;
57023;SDS011;42916;54.346;18.562;2022-10-16T10:15:04;26.70;;;17.20;;
57023;SDS011;42916;54.346;18.562;2022-10-16T10:17:45;28.50;;;17.50;;
57023;SDS011;42916;54.346;18.562;2022-10-16T10:22:52;27.80;;;17.30;;
57023;SDS011;42916;54.346;18.562;2022-10-16T10:25:25;26.60;;;17.30;;
57023;SDS011;42916;54.346;18.562;2022-10-16T10:35:47;22.80;;;15.90;;
57023;SDS011;42916;54.346;18.562;2022-10-16T10:52:34;21.50;;;15.00;;
57023;SDS011;42916;54.346;18.562;2022-10-16T11:00:49;24.20;;;15.50;;
57023;SDS011;42916;54.346;18.562;2022-10-16T11:09:06;25.00;;;14.70;;
57023;SDS011;42916;54.346;18.562;2022-10-16T11:11:46;24.10;;;15.00;;
57023;SDS011;42916;54.346;18.562;2022-10-16T11:14:31;23.50;;;14.90;;
57023;SDS011;42916;54.346;18.562;2022-10-16T11:17:09;22.40;;;15.00;;
57023;SDS011;42916;54.346;18.562;2022-10-16T11:22:22;21.20;;;15.40;;
57023;SDS011;42916;54.346;18.562;2022-10-16T11:30:24;19.60;;;13.40;;
57023;SDS011;42916;54.346;18.562;2022-10-16T11:38:39;20.30;;;14.50;;
57023;SDS011;42916;54.346;18.562;2022-10-16T11:41:32;20.20;;;13.90;;
57023;SDS011;42916;54.346;18.562;2022-10-16T11:44:50;18.20;;;12.60;;
57023;SDS011;42916;54.346;18.562;2022-10-16T11:47:10;16.90;;;12.50;;
57023;SDS011;42916;54.346;18.562;2022-10-16T11:49:39;16.00;;;12.20;;
57023;SDS011;42916;54.346;18.562;2022-10-16T11:55:04;17.60;;;12.90;;
57023;SDS011;42916;54.346;18.562;2022-10-16T11:57:39;17.20;;;13.10;;
57023;SDS011;42916;54.346;18.562;2022-10-16T12:02:53;16.80;;;12.30;;
57023;SDS011;42916;54.346;18.562;2022-10-16T12:05:42;13.50;;;11.10;;
57023;SDS011;42916;54.346;18.562;2022-10-16T12:08:14;17.00;;;11.60;;
57023;SDS011;42916;54.346;18.562;2022-10-16T12:10:43;15.30;;;11.30;;
57023;SDS011;42916;54.346;18.562;2022-10-16T12:16:06;13.40;;;10.00;;
57023;SDS011;42916;54.346;18.562;2022-10-16T12:18:39;12.80;;;10.50;;
57023;SDS011;42916;54.346;18.562;2022-10-16T12:23:38;11.60;;;9.60;;
57023;SDS011;42916;54.346;18.562;2022-10-16T12:26:13;12.40;;;9.70;;
57023;SDS011;42916;54.346;18.562;2022-10-16T12:28:40;12.20;;;9.70;;
57023;SDS011;42916;54.346;18.562;2022-10-16T12:31:07;13.20;;;9.60;;
57023;SDS011;42916;54.346;18.562;2022-10-16T12:33:43;12.60;;;9.70;;
57023;SDS011;42916;54.346;18.562;2022-10-16T12:36:32;10.90;;;9.30;;
57023;SDS011;42916;54.346;18.562;2022-10-16T12:39:00;14.30;;;9.40;;
57023;SDS011;42916;54.346;18.562;2022-10-16T12:41:29;10.80;;;8.30;;
57023;SDS011;42916;54.346;18.562;2022-10-16T12:43:58;9.50;;;8.40;;
57023;SDS011;42916;54.346;18.562;2022-10-16T12:49:19;9.60;;;8.40;;
57023;SDS011;42916;54.346;18.562;2022-10-16T12:51:55;10.70;;;8.00;;
57023;SDS011;42916;54.346;18.562;2022-10-16T12:57:12;8.80;;;7.40;;
57023;SDS011;42916;54.346;18.562;2022-10-16T13:02:27;9.40;;;7.40;;
57023;SDS011;42916;54.346;18.562;2022-10-16T13:21:11;7.40;;;6.60;;
57023;SDS011;42916;54.346;18.562;2022-10-16T13:29:17;6.50;;;5.70;;
57023;SDS011;42916;54.346;18.562;2022-10-16T13:31:45;6.60;;;6.00;;
57023;SDS011;42916;54.346;18.562;2022-10-16T13:34:13;7.30;;;6.20;;
57023;SDS011;42916;54.346;18.562;2022-10-16T13:36:46;8.20;;;6.10;;
57023;SDS011;42916;54.346;18.562;2022-10-16T13:39:24;9.50;;;6.40;;
57023;SDS011;42916;54.346;18.562;2022-10-16T13:44:35;8.40;;;7.30;;
57023;SDS011;42916;54.346;18.562;2022-10-16T13:47:10;8.40;;;7.20;;
57023;SDS011;42916;54.346;18.562;2022-10-16T13:49:42;9.60;;;6.80;;
57023;SDS011;42916;54.346;18.562;2022-10-16T13:52:19;9.20;;;7.40;;
57023;SDS011;42916;54.346;18.562;2022-10-16T13:54:47;9.00;;;7.20;;
57023;SDS011;42916;54.346;18.562;2022-10-16T13:57:14;8.60;;;6.60;;
57023;SDS011;42916;54.346;18.562;2022-10-16T13:59:41;9.80;;;6.00;;
57023;SDS011;42916;54.346;18.562;2022-10-16T14:04:56;10.50;;;7.40;;
57023;SDS011;42916;54.346;18.562;2022-10-16T14:07:25;9.20;;;7.80;;
57023;SDS011;42916;54.346;18.562;2022-10-16T14:09:54;8.10;;;7.30;;
57023;SDS011;42916;54.346;18.562;2022-10-16T14:12:22;9.50;;;8.30;;
57023;SDS011;42916;54.346;18.562;2022-10-16T14:14:50;9.40;;;8.20;;
57023;SDS011;42916;54.346;18.562;2022-10-16T14:17:22;10.60;;;7.90;;
57023;SDS011;42916;54.346;18.562;2022-10-16T14:19:54;11.70;;;8.70;;
57023;SDS011;42916;54.346;18.562;2022-10-16T14:22:39;10.60;;;9.00;;
57023;SDS011;42916;54.346;18.562;2022-10-16T14:27:56;9.50;;;8.50;;
57023;SDS011;42916;54.346;18.562;2022-10-16T14:33:18;11.80;;;8.50;;
57023;SDS011;42916;54.346;18.562;2022-10-16T14:35:58;11.00;;;8.10;;
57023;SDS011;42916;54.346;18.562;2022-10-16T14:38:26;9.70;;;8.30;;
57023;SDS011;42916;54.346;18.562;2022-10-16T14:40:52;14.80;;;9.00;;
57023;SDS011;42916;54.346;18.562;2022-10-16T14:43:31;9.80;;;8.50;;
57023;SDS011;42916;54.346;18.562;2022-10-16T14:46:00;10.10;;;8.40;;
57023;SDS011;42916;54.346;18.562;2022-10-16T14:48:30;10.70;;;8.40;;
57023;SDS011;42916;54.346;18.562;2022-10-16T14:50:56;9.90;;;8.10;;
57023;SDS011;42916;54.346;18.562;2022-10-16T14:53:23;9.50;;;8.10;;
57023;SDS011;42916;54.346;18.562;2022-10-16T14:55:50;8.40;;;7.50;;
57023;SDS011;42916;54.346;18.562;2022-10-16T14:58:18;13.70;;;8.40;;
57023;SDS011;42916;54.346;18.562;2022-10-16T15:00:47;9.60;;;8.50;;
57023;SDS011;42916;54.346;18.562;2022-10-16T15:03:15;12.40;;;8.70;;
57023;SDS011;42916;54.346;18.562;2022-10-16T15:05:42;11.70;;;8.60;;
57023;SDS011;42916;54.346;18.562;2022-10-16T15:08:08;11.60;;;8.70;;
57023;SDS011;42916;54.346;18.562;2022-10-16T15:10:38;10.40;;;8.90;;
57023;SDS011;42916;54.346;18.562;2022-10-16T15:13:09;8.70;;;7.60;;
57023;SDS011;42916;54.346;18.562;2022-10-16T15:15:41;12.40;;;8.40;;
57023;SDS011;42916;54.346;18.562;2022-10-16T15:18:12;13.30;;;8.80;;
57023;SDS011;42916;54.346;18.562;2022-10-16T15:23:15;13.80;;;10.00;;
57023;SDS011;42916;54.346;18.562;2022-10-16T15:25:46;13.50;;;10.60;;
57023;SDS011;42916;54.346;18.562;2022-10-16T15:28:15;13.90;;;10.40;;
57023;SDS011;42916;54.346;18.562;2022-10-16T15:30:42;13.40;;;10.60;;
57023;SDS011;42916;54.346;18.562;2022-10-16T15:33:12;15.60;;;10.20;;
57023;SDS011;42916;54.346;18.562;2022-10-16T15:35:42;14.50;;;9.60;;
57023;SDS011;42916;54.346;18.562;2022-10-16T15:38:11;14.30;;;11.50;;
57023;SDS011;42916;54.346;18.562;2022-10-16T15:40:39;15.30;;;11.60;;
57023;SDS011;42916;54.346;18.562;2022-10-16T15:43:06;15.20;;;12.50;;
57023;SDS011;42916;54.346;18.562;2022-10-16T15:45:33;16.70;;;11.70;;
57023;SDS011;42916;54.346;18.562;2022-10-16T15:48:00;17.60;;;13.10;;
57023;SDS011;42916;54.346;18.562;2022-10-16T15:50:26;15.80;;;11.60;;
57023;SDS011;42916;54.346;18.562;2022-10-16T15:52:53;12.90;;;11.50;;
57023;SDS011;42916;54.346;18.562;2022-10-16T15:55:20;16.20;;;12.90;;
57023;SDS011;42916;54.346;18.562;2022-10-16T15:57:47;16.70;;;12.40;;
57023;SDS011;42916;54.346;18.562;2022-10-16T16:00:15;15.80;;;11.60;;
57023;SDS011;42916;54.346;18.562;2022-10-16T16:02:48;13.80;;;11.20;;
57023;SDS011;42916;54.346;18.562;2022-10-16T16:05:18;14.90;;;11.30;;
57023;SDS011;42916;54.346;18.562;2022-10-16T16:07:45;14.10;;;10.90;;
57023;SDS011;42916;54.346;18.562;2022-10-16T16:10:12;13.40;;;10.80;;
57023;SDS011;42916;54.346;18.562;2022-10-16T16:12:42;14.70;;;11.50;;
57023;SDS011;42916;54.346;18.562;2022-10-16T16:15:09;20.10;;;12.70;;
57023;SDS011;42916;54.346;18.562;2022-10-16T16:17:36;18.90;;;12.80;;
57023;SDS011;42916;54.346;18.562;2022-10-16T16:20:03;18.90;;;12.30;;
57023;SDS011;42916;54.346;18.562;2022-10-16T16:22:31;18.40;;;13.00;;
57023;SDS011;42916;54.346;18.562;2022-10-16T16:24:58;18.00;;;12.70;;
57023;SDS011;42916;54.346;18.562;2022-10-16T16:27:24;22.00;;;13.10;;
57023;SDS011;42916;54.346;18.562;2022-10-16T16:29:51;21.80;;;13.60;;
57023;SDS011;42916;54.346;18.562;2022-10-16T16:32:18;19.60;;;12.60;;
57023;SDS011;42916;54.346;18.562;2022-10-16T16:34:45;18.00;;;13.20;;
57023;SDS011;42916;54.346;18.562;2022-10-16T16:37:11;19.90;;;13.80;;
57023;SDS011;42916;54.346;18.562;2022-10-16T16:39:38;26.80;;;16.40;;
57023;SDS011;42916;54.346;18.562;2022-10-16T16:42:05;27.90;;;17.60;;
57023;SDS011;42916;54.346;18.562;2022-10-16T16:44:33;27.40;;;16.30;;
57023;SDS011;42916;54.346;18.562;2022-10-16T16:47:03;27.60;;;16.70;;
57023;SDS011;42916;54.346;18.562;2022-10-16T16:49:31;22.50;;;16.10;;
57023;SDS011;42916;54.346;18.562;2022-10-16T16:51:58;24.10;;;16.10;;
57023;SDS011;42916;54.346;18.562;2022-10-16T16:54:24;24.50;;;15.20;;
57023;SDS011;42916;54.346;18.562;2022-10-16T16:56:51;24.80;;;15.50;;
57023;SDS011;42916;54.346;18.562;2022-10-16T16:59:19;22.00;;;15.20;;
57023;SDS011;42916;54.346;18.562;2022-10-16T17:01:48;21.20;;;15.10;;
57023;SDS011;42916;54.346;18.562;2022-10-16T17:04:15;18.70;;;13.60;;